Weather History for Paris, IL

Change the Weather History Date:

Tuesday, December 25, 2012

  Actual Average (KHUF) Record (KHUF)
Temperature  
Mean Temperature 32 °F 29 °F  
Max Temperature 34 °F 37 °F 62 °F (1982)
Min Temperature 29 °F 22 °F -10 °F (1989)
Degree Days  
Heating Degree Days 34 36  
Month to date heating degree days 817  
Since 1 July heating degree days 1895  
Cooling Degree Days 0 0  
Month to date cooling degree days 0  
Year to date cooling degree days 993  
Moisture  
Dew Point 27 °F    
Average Humidity 80    
Maximum Humidity 91    
Minimum Humidity 71    
Precipitation  
Precipitation 0.00 in 0.13 in 1.31 in (1982)
Month to date precipitation 2.32  
Year to date precipitation 44.43  
Sea Level Pressure  
Sea Level Pressure 30.15 in    
Wind  
Wind Speed 9 mph (NNE)    
Max Wind Speed 23 mph    
Max Gust Speed 31 mph    
Visibility 9 miles    
Events      
T = Trace of Precipitation, MM = Missing Value Source: NWS Daily Summary

Daily Weather History Graph

Daily Weather History Graph

Search for Another Location

Airport:

Trip Planner

Search our weather history database for the weather conditions in past years. The results will help you decide how hot, cold, wet, or windy it might be!

Date:

Astronomy

Dec. 25, 2012 Rise Set
Actual Time 7:10 AM CST 4:32 PM CST
Civil Twilight 6:39 AM CST 5:02 PM CST
Nautical Twilight 6:05 AM CST 5:36 PM CST
Astronomical Twilight 5:32 AM CST 6:09 PM CST
Moon 2:40 PM CST (12/25) 4:42 AM CST (12/25)
Length of Visible Light 10h 22m
Length of Day
9h 22m
Waxing Gibbous, 94% of the Moon is Illuminated
Dec 25
Waxing Gibbous
Dec 28
Full
Jan 4
Last Quarter
Jan 11
New
Jan 18
First Quarter

Hourly Weather History & Observations

Time (CST) Temp. Windchill Dew Point Humidity Pressure Visibility Wind Dir Wind Speed Gust Speed Precip Events Conditions
12:15 AM 29.7 °F 22.0 °F 27.3 °F 91% 30.08 in 5.0 mi NW 8.1 mph - N/A   Overcast
12:35 AM 29.7 °F 22.0 °F 27.1 °F 90% 30.09 in 7.0 mi WNW 8.1 mph - N/A   Overcast
12:55 AM 29.7 °F 21.3 °F 27.1 °F 90% 30.10 in 7.0 mi WNW 9.2 mph - N/A   Overcast
1:15 AM 29.7 °F 21.3 °F 27.1 °F 90% 30.10 in 5.0 mi WNW 9.2 mph - N/A   Overcast
1:35 AM 29.5 °F 21.8 °F 27.1 °F 91% 30.11 in 7.0 mi NW 8.1 mph - N/A   Overcast
1:55 AM 29.5 °F 21.8 °F 27.1 °F 91% 30.11 in 7.0 mi NNW 8.1 mph - N/A   Overcast
2:15 AM 29.7 °F 22.8 °F 27.1 °F 90% 30.12 in 7.0 mi NW 6.9 mph - N/A   Overcast
2:35 AM 29.5 °F 23.4 °F 27.1 °F 91% 30.12 in 7.0 mi NW 5.8 mph - N/A   Overcast
2:55 AM 29.5 °F 25.9 °F 27.1 °F 91% 30.13 in 7.0 mi NW 3.5 mph - N/A   Overcast
3:15 AM 29.8 °F 24.9 °F 27.5 °F 91% 30.13 in 7.0 mi NNW 4.6 mph - N/A   Overcast
3:35 AM 30.0 °F 25.2 °F 27.5 °F 90% 30.13 in 7.0 mi NNW 4.6 mph - N/A   Overcast
3:55 AM 30.2 °F 25.4 °F 27.7 °F 90% 30.13 in 7.0 mi North 4.6 mph - N/A   Overcast
4:15 AM 30.2 °F - 27.7 °F 90% 30.14 in 7.0 mi Calm Calm - N/A   Overcast
4:35 AM 30.7 °F - 28.2 °F 90% 30.14 in 7.0 mi Calm Calm - N/A   Overcast
4:55 AM 30.9 °F 27.5 °F 27.9 °F 88% 30.15 in 10.0 mi NNE 3.5 mph - N/A   Overcast
5:15 AM 31.1 °F 27.7 °F 27.7 °F 87% 30.17 in 10.0 mi North 3.5 mph - N/A   Overcast
5:35 AM 31.1 °F 26.4 °F 27.5 °F 87% 30.17 in 10.0 mi NNE 4.6 mph - N/A   Overcast
5:55 AM 31.1 °F 27.7 °F 27.3 °F 86% 30.18 in 10.0 mi North 3.5 mph - N/A   Overcast
6:15 AM 31.1 °F 26.4 °F 27.3 °F 86% 30.19 in 10.0 mi NNE 4.6 mph - N/A   Overcast
6:35 AM 31.1 °F 23.7 °F 27.3 °F 86% 30.18 in 10.0 mi NNE 8.1 mph - N/A   Overcast
6:55 AM 30.9 °F 25.2 °F 27.1 °F 86% 30.18 in 10.0 mi North 5.8 mph - N/A   Mostly Cloudy
7:15 AM 30.2 °F 26.7 °F 27.0 °F 88% 30.18 in 10.0 mi North 3.5 mph - N/A   Mostly Cloudy
7:35 AM 30.2 °F 23.4 °F 27.1 °F 88% 30.17 in 10.0 mi North 6.9 mph - N/A   Mostly Cloudy
7:55 AM 30.2 °F 22.6 °F 27.1 °F 88% 30.15 in 10.0 mi NNE 8.1 mph - N/A   Scattered Clouds
8:15 AM 30.7 °F 23.3 °F 27.1 °F 86% 30.16 in 10.0 mi NNE 8.1 mph - N/A   Clear
8:35 AM 31.5 °F 23.5 °F 27.5 °F 85% 30.20 in 10.0 mi NE 9.2 mph - N/A   Clear
8:55 AM 32.0 °F 23.6 °F 27.3 °F 83% 30.19 in 10.0 mi NNE 10.4 mph - N/A   Clear
9:15 AM 32.4 °F 24.6 °F 26.6 °F 79% 30.22 in 10.0 mi NE 9.2 mph - N/A   Clear
9:35 AM 33.1 °F 24.9 °F 26.4 °F 77% 30.23 in 10.0 mi NNE 10.4 mph - N/A   Clear
9:55 AM 33.3 °F 25.1 °F 25.9 °F 74% 30.23 in 10.0 mi NE 10.4 mph - N/A   Clear
10:15 AM 33.4 °F 24.8 °F 25.9 °F 74% 30.23 in 10.0 mi NE 11.5 mph - N/A   Clear
10:35 AM 34.0 °F 26.0 °F 25.9 °F 72% 30.24 in 10.0 mi NE 10.4 mph 16.1 mph N/A   Scattered Clouds
10:55 AM 33.4 °F 25.4 °F 26.1 °F 74% 30.24 in 10.0 mi NE 10.4 mph - N/A   Scattered Clouds
11:15 AM 33.8 °F 26.4 °F 26.6 °F 75% 30.23 in 10.0 mi ENE 9.2 mph - N/A   Scattered Clouds
11:35 AM 34.3 °F 26.5 °F 26.6 °F 73% 30.21 in 10.0 mi ENE 10.4 mph - N/A   Scattered Clouds
11:55 AM 34.5 °F 26.2 °F 26.4 °F 72% 30.19 in 10.0 mi ENE 11.5 mph - N/A   Scattered Clouds
12:15 PM 34.7 °F 26.4 °F 26.6 °F 72% 30.19 in 10.0 mi NE 11.5 mph - N/A   Mostly Cloudy
12:35 PM 34.9 °F 26.6 °F 26.6 °F 72% 30.18 in 10.0 mi NE 11.5 mph 16.1 mph N/A   Mostly Cloudy
12:55 PM 34.3 °F 25.9 °F 26.1 °F 72% 30.15 in 10.0 mi NE 11.5 mph 17.3 mph N/A   Overcast
1:15 PM 34.0 °F 24.6 °F 26.2 °F 73% 30.16 in 10.0 mi NE 13.8 mph 19.6 mph N/A   Overcast
1:35 PM 34.2 °F 26.8 °F 26.4 °F 73% 30.17 in 10.0 mi NE 9.2 mph - N/A   Overcast
1:55 PM 34.0 °F 26.0 °F 25.7 °F 72% 30.18 in 10.0 mi ENE 10.4 mph - N/A   Overcast
2:15 PM 33.8 °F 25.3 °F 25.9 °F 73% 30.17 in 10.0 mi ENE 11.5 mph - N/A   Overcast
2:35 PM 33.8 °F 24.8 °F 26.2 °F 74% 30.15 in 10.0 mi ENE 12.7 mph 18.4 mph N/A   Overcast
2:55 PM 33.8 °F 24.3 °F 25.7 °F 72% 30.15 in 10.0 mi ENE 13.8 mph 17.3 mph N/A   Overcast
3:15 PM 33.4 °F 23.9 °F 25.5 °F 73% 30.15 in 10.0 mi ENE 13.8 mph 18.4 mph N/A   Overcast
3:35 PM 33.4 °F 24.3 °F 25.0 °F 71% 30.15 in 10.0 mi ENE 12.7 mph 24.2 mph N/A   Overcast
3:55 PM 33.1 °F 22.6 °F 25.2 °F 73% 30.15 in 10.0 mi ENE 16.1 mph 21.9 mph N/A   Overcast
4:15 PM 32.9 °F 23.2 °F 25.3 °F 74% 30.15 in 10.0 mi ENE 13.8 mph 19.6 mph N/A   Overcast
4:35 PM 32.9 °F 23.7 °F 25.2 °F 73% 30.15 in 10.0 mi ENE 12.7 mph 18.4 mph N/A   Overcast
4:55 PM 32.9 °F 24.7 °F 25.3 °F 74% 30.16 in 10.0 mi ENE 10.4 mph - N/A   Overcast
5:15 PM 32.9 °F 23.7 °F 25.3 °F 74% 30.16 in 10.0 mi NE 12.7 mph 18.4 mph N/A   Overcast
5:35 PM 32.9 °F 23.7 °F 25.3 °F 74% 30.16 in 10.0 mi ENE 12.7 mph - N/A   Overcast
5:55 PM 32.9 °F 24.7 °F 25.5 °F 74% 30.17 in 10.0 mi NE 10.4 mph 20.7 mph N/A   Overcast
6:15 PM 32.5 °F 23.7 °F 26.1 °F 77% 30.16 in 10.0 mi NE 11.5 mph 18.4 mph N/A   Overcast
6:35 PM 32.4 °F 22.5 °F 25.7 °F 76% 30.15 in 10.0 mi NE 13.8 mph - N/A   Overcast
6:55 PM 32.4 °F 23.5 °F 25.7 °F 76% 30.16 in 10.0 mi NE 11.5 mph 17.3 mph N/A   Overcast
7:15 PM 32.4 °F 22.5 °F 26.1 °F 78% 30.15 in 10.0 mi NE 13.8 mph 20.7 mph N/A   Overcast
7:35 PM 32.4 °F 23.0 °F 26.2 °F 78% 30.12 in 10.0 mi NE 12.7 mph 19.6 mph N/A   Overcast
7:55 PM 32.4 °F 23.0 °F 26.6 °F 79% 30.11 in 10.0 mi NE 12.7 mph 21.9 mph N/A   Overcast
8:15 PM 32.4 °F 22.1 °F 26.6 °F 79% 30.10 in 10.0 mi NE 15.0 mph 20.7 mph N/A   Overcast
8:35 PM 32.4 °F 19.7 °F 25.7 °F 76% 30.10 in 10.0 mi ENE 23.0 mph 31.1 mph N/A   Overcast
8:55 PM 32.2 °F 22.3 °F 25.5 °F 76% 30.09 in 10.0 mi NE 13.8 mph 27.6 mph N/A   Overcast
9:15 PM 32.2 °F 20.7 °F 25.7 °F 77% 30.09 in 10.0 mi NE 18.4 mph 25.3 mph N/A   Overcast
10:15 PM 32.5 °F 22.3 °F 26.4 °F 78% 30.07 in 10.0 mi ENE 15.0 mph 25.3 mph N/A   Overcast
10:35 PM 32.9 °F 21.6 °F 26.6 °F 78% 30.07 in 10.0 mi NE 18.4 mph 24.2 mph N/A   Overcast
10:55 PM 32.7 °F 22.5 °F 26.6 °F 78% 30.05 in 10.0 mi NE 15.0 mph 25.3 mph N/A   Overcast
11:15 PM 32.7 °F 23.0 °F 27.1 °F 80% 30.05 in 10.0 mi NE 13.8 mph 24.2 mph N/A   Overcast
11:35 PM 32.5 °F 22.7 °F 27.3 °F 81% 30.02 in 10.0 mi NE 13.8 mph 18.4 mph N/A   Overcast
11:55 PM 32.4 °F 21.7 °F 27.3 °F 82% 30.01 in 10.0 mi NE 16.1 mph 21.9 mph N/A   Overcast